createdAt,value
2022-08-12T06:52:57.250Z,96746.66
2022-08-12T06:54:00.328Z,96746.84
2022-08-12T06:55:01.742Z,96744.88
2022-08-12T06:56:03.475Z,96752.38
2022-08-12T06:58:06.334Z,96741.59
2022-08-12T06:58:28.517Z,96741.59
2022-08-12T07:19:05.766Z,96758.38
2022-08-12T07:20:20.113Z,96757.13
2022-08-12T07:22:00.232Z,96761.44
2022-08-12T07:22:59.142Z,96754.38
2022-08-12T07:24:00.560Z,96757.31
2022-08-12T07:25:20.596Z,96756.94
2022-08-12T07:44:09.162Z,96766.47
2022-08-12T07:45:13.677Z,96764.66
2022-08-12T07:46:20.657Z,96761.56
2022-08-12T07:47:22.949Z,96768.91
2022-08-12T07:48:24.884Z,96761.38
2022-08-12T07:49:28.064Z,96764.66
2022-08-12T07:50:29.484Z,96771.53
2022-08-12T07:51:31.302Z,96775.44
2022-08-12T08:09:21.388Z,96742.09
2022-08-12T08:10:22.982Z,96752.16
2022-08-12T08:11:43.689Z,96754.00
2022-08-12T08:12:54.094Z,96762.97
2022-08-12T08:13:55.469Z,96757.47
2022-08-12T08:14:58.435Z,96758.19
2022-08-12T08:16:03.530Z,96754.03
2022-08-12T08:17:06.414Z,96755.44
2022-08-12T08:18:11.236Z,96762.56
2022-08-12T08:35:46.351Z,96771.56
2022-08-12T08:36:48.778Z,96774.50
2022-08-12T08:37:51.872Z,96772.03
2022-08-12T08:38:57.756Z,96764.25
2022-08-12T08:40:19.925Z,96765.25
2022-08-12T08:42:17.368Z,96761.78
2022-08-12T08:43:01.653Z,96760.69
2022-08-12T08:44:03.328Z,96758.72
2022-08-12T08:45:13.196Z,96769.16
2022-08-12T08:46:14.699Z,96765.59
2022-08-12T08:47:16.260Z,96763.94
2022-08-12T09:06:37.041Z,96768.84
2022-08-12T09:07:58.726Z,96754.59
2022-08-12T09:09:13.312Z,96754.56
2022-08-12T09:10:31.257Z,96751.06
2022-08-12T09:12:11.607Z,96738.81
2022-08-12T09:16:12.439Z,96756.88
2022-08-12T09:17:21.242Z,96756.66
2022-08-12T09:18:26.468Z,96751.34
2022-08-12T09:19:32.470Z,96749.78
2022-08-12T09:20:35.969Z,96757.22
2022-08-12T09:40:02.511Z,96731.06
2022-08-12T09:42:07.883Z,96730.78
2022-08-12T09:42:44.034Z,96733.34
2022-08-12T09:44:38.465Z,96733.56
2022-08-12T09:46:06.823Z,96732.84
2022-08-12T09:46:57.999Z,96722.91
2022-08-12T09:48:03.414Z,96716.78
2022-08-12T09:49:13.208Z,96726.53
2022-08-12T09:50:20.678Z,96726.88
2022-08-12T09:51:22.877Z,96722.50
2022-08-12T09:52:24.342Z,96722.56
2022-08-12T09:53:38.525Z,96722.94
2022-08-12T09:54:42.843Z,96721.22
2022-08-12T09:56:03.798Z,96720.41
2022-08-12T09:58:46.459Z,96718.44
2022-08-12T09:58:59.037Z,96708.00
2022-08-12T10:00:13.373Z,96714.38
2022-08-12T10:20:03.751Z,96701.63
2022-08-12T10:21:13.837Z,96690.50
2022-08-12T10:22:17.255Z,96704.19
2022-08-12T10:23:40.113Z,96701.56
2022-08-12T10:24:42.657Z,96693.84
2022-08-12T10:26:34.466Z,96693.31
2022-08-12T10:28:04.797Z,96693.03
2022-08-12T10:30:37.612Z,96695.56
2022-08-12T10:30:58.980Z,96695.94
2022-08-12T10:32:20.535Z,96693.94
2022-08-12T10:33:30.638Z,96685.56
2022-08-12T10:34:33.463Z,96684.84
2022-08-12T10:35:38.169Z,96684.53
2022-08-12T10:36:43.091Z,96684.59
2022-08-12T10:38:38.651Z,96688.28
2022-08-12T10:40:00.002Z,96684.63
2022-08-12T10:40:55.445Z,96677.00
2022-08-12T10:42:15.711Z,96667.97
2022-08-12T10:43:54.355Z,96680.53
2022-08-12T10:45:01.891Z,96683.38
2022-08-12T10:46:03.569Z,96677.06
2022-08-12T10:47:26.338Z,96674.31
2022-08-12T10:49:05.430Z,96677.91
2022-08-12T10:50:28.126Z,96672.38
2022-08-12T10:52:04.193Z,96666.16
2022-08-12T10:52:52.774Z,96667.78
2022-08-12T10:54:00.667Z,96680.44
2022-08-12T10:55:07.015Z,96672.69
2022-08-12T10:56:16.343Z,96674.50
2022-08-12T10:58:15.288Z,96667.94
2022-08-12T10:58:40.142Z,96660.28
2022-08-12T11:00:30.111Z,96657.59
2022-08-12T11:01:49.850Z,96665.91
2022-08-12T11:04:26.468Z,96662.81
2022-08-12T11:04:35.429Z,96673.91
2022-08-12T11:07:03.543Z,96665.25
2022-08-12T11:28:00.319Z,96666.63
2022-08-12T11:29:05.945Z,96652.56
2022-08-12T11:30:31.361Z,96640.28
2022-08-12T11:31:56.019Z,96643.53
2022-08-12T11:32:54.799Z,96637.53
2022-08-12T11:34:04.208Z,96641.25
2022-08-12T11:35:09.327Z,96637.50
2022-08-12T11:36:16.225Z,96636.03
2022-08-12T11:37:26.201Z,96638.50
2022-08-12T11:38:28.393Z,96620.00
2022-08-12T11:40:03.543Z,96640.94
2022-08-12T11:40:51.230Z,96640.94
2022-08-12T11:41:52.771Z,96625.53
2022-08-12T11:42:54.752Z,96635.59
2022-08-12T11:43:59.221Z,96636.38
2022-08-12T11:45:00.714Z,96630.00
2022-08-12T11:46:02.514Z,96634.31
2022-08-12T11:47:09.469Z,96634.91
2022-08-12T11:48:11.142Z,96632.28
2022-08-12T11:49:20.457Z,96634.88
2022-08-12T11:50:34.397Z,96637.03
2022-08-12T11:51:43.637Z,96635.97
2022-08-12T11:52:59.645Z,96641.53
2022-08-12T11:54:01.598Z,96635.09
2022-08-12T11:55:03.277Z,96637.38
2022-08-12T11:56:06.721Z,96633.88
2022-08-12T11:58:07.368Z,96619.06
2022-08-12T11:59:16.184Z,96634.00
2022-08-12T12:02:04.566Z,96626.28
2022-08-12T12:02:33.914Z,96619.91
2022-08-12T12:03:45.613Z,96622.88
2022-08-12T12:04:52.868Z,96628.31
2022-08-12T12:05:55.348Z,96626.75
2022-08-12T12:07:07.301Z,96620.16
2022-08-12T12:08:37.613Z,96622.84
2022-08-12T12:09:52.795Z,96629.59
2022-08-12T12:10:55.279Z,96608.69
2022-08-12T12:11:57.588Z,96626.44
2022-08-12T12:12:59.059Z,96627.41
2022-08-12T12:14:08.533Z,96611.78
2022-08-12T12:15:13.882Z,96610.91
2022-08-12T12:16:15.374Z,96606.78
2022-08-12T12:17:16.808Z,96617.84
2022-08-12T12:18:30.867Z,96611.09
2022-08-12T12:19:45.440Z,96611.75
2022-08-12T12:20:48.352Z,96612.59
2022-08-12T12:21:49.997Z,96616.59
2022-08-12T12:22:51.501Z,96618.00
2022-08-12T12:23:54.197Z,96616.03
2022-08-12T12:25:12.805Z,96617.50
2022-08-12T12:26:35.715Z,96619.69
2022-08-12T12:28:03.983Z,96608.31
2022-08-12T12:30:13.237Z,96610.53
2022-08-12T12:30:29.999Z,96593.59
2022-08-12T12:32:06.969Z,96603.56
2022-08-12T12:32:54.663Z,96610.38
2022-08-12T12:33:58.447Z,96612.25
2022-08-12T12:35:14.456Z,96593.94
2022-08-12T12:36:29.288Z,96608.75
2022-08-12T12:38:04.499Z,96603.81
2022-08-12T12:38:53.697Z,96608.97
2022-08-12T12:39:58.123Z,96601.38
2022-08-12T12:41:00.142Z,96605.22
2022-08-12T12:42:42.529Z,96600.63
2022-08-12T12:43:42.801Z,96597.72
2022-08-12T12:44:53.547Z,96593.50
2022-08-12T12:45:55.276Z,96603.34
2022-08-12T12:46:56.673Z,96597.59
2022-08-12T12:48:18.108Z,96590.38
2022-08-12T12:49:19.508Z,96594.53
2022-08-12T12:50:36.003Z,96602.91
2022-08-12T12:51:50.057Z,96588.34
2022-08-12T12:53:09.261Z,96592.59
2022-08-12T12:54:30.680Z,96591.56
2022-08-12T12:55:37.973Z,96579.78
2022-08-12T12:56:42.260Z,96589.22
2022-08-12T12:58:00.266Z,96583.53
2022-08-12T12:59:03.963Z,96572.72
2022-08-12T13:00:15.072Z,96583.69
2022-08-12T13:01:27.931Z,96575.19
2022-08-12T13:02:34.666Z,96578.38
2022-08-12T13:03:48.834Z,96577.19
2022-08-12T13:04:50.923Z,96590.16
2022-08-12T13:06:00.426Z,96585.06
2022-08-12T13:07:02.439Z,96582.44
2022-08-12T13:08:36.960Z,96580.97
2022-08-12T13:09:38.364Z,96574.81
2022-08-12T13:10:50.182Z,96577.88
2022-08-12T13:11:53.146Z,96578.06
2022-08-12T13:12:55.397Z,96585.81
2022-08-12T13:14:10.174Z,96572.97
2022-08-12T13:15:43.583Z,96581.44
2022-08-12T13:16:43.766Z,96574.66
2022-08-12T13:18:03.306Z,96583.50
2022-08-12T13:19:07.682Z,96582.91
2022-08-12T13:41:33.612Z,96555.53
2022-08-12T13:42:34.986Z,96581.94
2022-08-12T13:43:40.493Z,96583.13
2022-08-12T13:44:44.052Z,96574.16
2022-08-12T13:45:48.637Z,96573.09
2022-08-12T13:46:58.775Z,96582.28
2022-08-12T13:48:06.785Z,96583.94
2022-08-12T13:49:11.569Z,96575.75
2022-08-12T13:50:19.137Z,96582.13
2022-08-12T13:51:41.227Z,96581.91
2022-08-12T13:52:43.398Z,96566.25
2022-08-12T13:53:55.340Z,96574.63
2022-08-12T13:55:02.210Z,96574.34
2022-08-12T13:56:11.742Z,96573.53
2022-08-12T13:57:16.907Z,96569.91
2022-08-12T13:58:21.485Z,96569.72
2022-08-12T13:59:24.423Z,96569.16
2022-08-12T14:00:33.904Z,96573.84
2022-08-12T14:01:41.289Z,96564.59
2022-08-12T14:02:43.081Z,96542.66
2022-08-12T14:03:50.629Z,96558.09
2022-08-12T14:04:56.372Z,96554.75
2022-08-12T14:06:02.512Z,96560.81
2022-08-12T14:07:05.524Z,96555.91
2022-08-12T14:08:09.357Z,96573.72
2022-08-12T14:09:17.642Z,96564.25
2022-08-12T14:10:50.568Z,96564.41
2022-08-12T14:11:59.550Z,96564.25
2022-08-12T14:13:01.568Z,96569.88
2022-08-12T14:14:12.801Z,96572.50
2022-08-12T14:15:16.026Z,96566.31
2022-08-12T14:16:37.450Z,96569.59
2022-08-12T14:17:39.904Z,96560.69
2022-08-12T14:18:44.164Z,96557.97
2022-08-12T14:20:17.097Z,96561.91
2022-08-12T14:21:22.440Z,96557.72
2022-08-12T14:22:25.952Z,96560.94
2022-08-12T14:24:04.796Z,96558.91
2022-08-12T14:24:52.521Z,96553.53
2022-08-12T14:25:59.600Z,96551.72
2022-08-12T14:27:02.182Z,96549.97
2022-08-12T14:28:16.219Z,96550.91
2022-08-12T14:29:21.692Z,96550.09
2022-08-12T14:31:00.083Z,96543.44
2022-08-12T14:32:02.473Z,96545.88
2022-08-12T14:33:09.132Z,96540.59
2022-08-12T14:34:12.664Z,96541.63
2022-08-12T14:35:14.205Z,96542.63
2022-08-12T14:36:26.010Z,96536.72
2022-08-12T14:37:56.854Z,96536.72
2022-08-12T14:38:50.013Z,96527.03
2022-08-12T14:39:51.416Z,96536.00
2022-08-12T14:40:58.283Z,96540.44
2022-08-12T14:41:59.797Z,96543.00
2022-08-12T14:43:02.717Z,96546.47
2022-08-12T14:44:58.158Z,96543.81
2022-08-12T14:45:44.231Z,96540.31
2022-08-12T14:46:57.672Z,96544.47
2022-08-12T14:48:00.840Z,96552.56
2022-08-12T14:49:27.348Z,96548.06
2022-08-12T14:50:42.049Z,96547.50
2022-08-12T14:52:44.211Z,96547.00
2022-08-12T14:57:20.411Z,96546.00
2022-08-12T14:58:26.933Z,96543.56
2022-08-12T14:59:58.232Z,96547.38
2022-08-12T15:01:21.438Z,96537.44
2022-08-12T15:02:22.978Z,96554.72
2022-08-12T15:03:36.682Z,96536.09
2022-08-12T15:04:59.599Z,96538.88
2022-08-12T15:06:39.294Z,96529.31
2022-08-12T15:33:15.137Z,96522.78
2022-08-12T15:34:20.412Z,96531.16
2022-08-12T15:35:31.409Z,96530.50
2022-08-12T15:36:53.902Z,96529.44
2022-08-12T15:38:09.251Z,96528.91
2022-08-12T15:39:17.143Z,96524.66
2022-08-12T15:40:29.875Z,96526.75
2022-08-12T15:41:49.158Z,96526.00
2022-08-12T15:49:03.957Z,96532.16
2022-08-12T15:50:26.568Z,96522.88
2022-08-12T15:51:59.946Z,96516.88
2022-08-12T15:52:58.738Z,96512.09
2022-08-12T15:54:34.955Z,96516.41
2022-08-12T15:55:37.136Z,96512.69
2022-08-12T15:56:48.983Z,96528.50
2022-08-12T15:57:57.513Z,96513.91
2022-08-12T15:58:59.517Z,96523.13
2022-08-12T16:00:07.370Z,96523.53
2022-08-12T16:41:02.346Z,96510.22
2022-08-12T16:42:05.535Z,96508.13
2022-08-12T16:43:25.088Z,96519.56
2022-08-12T16:44:26.677Z,96508.34
2022-08-12T16:46:05.599Z,96508.56
2022-08-12T16:47:00.928Z,96505.56
2022-08-12T16:48:05.259Z,96511.16
2022-08-12T16:49:13.513Z,96508.78
2022-08-12T16:50:15.504Z,96509.44
2022-08-12T17:32:28.095Z,96502.22
2022-08-12T17:33:33.407Z,96496.09
2022-08-12T17:34:55.615Z,96512.81
